sensor_id;sensor_type;location;lat;lon;timestamp;P1;durP1;ratioP1;P2;durP2;ratioP2
27925;SDS011;15267;47.838;12.128;2023-05-07T00:00:53;4.90;;;3.50;;
27925;SDS011;15267;47.838;12.128;2023-05-07T00:03:20;5.80;;;3.85;;
27925;SDS011;15267;47.838;12.128;2023-05-07T00:05:46;4.25;;;3.70;;
27925;SDS011;15267;47.838;12.128;2023-05-07T00:08:13;6.65;;;3.90;;
27925;SDS011;15267;47.838;12.128;2023-05-07T00:10:39;6.72;;;3.70;;
27925;SDS011;15267;47.838;12.128;2023-05-07T00:13:04;6.03;;;3.38;;
27925;SDS011;15267;47.838;12.128;2023-05-07T00:15:30;9.27;;;4.00;;
27925;SDS011;15267;47.838;12.128;2023-05-07T00:17:56;11.35;;;3.90;;
27925;SDS011;15267;47.838;12.128;2023-05-07T00:20:24;7.00;;;3.90;;
27925;SDS011;15267;47.838;12.128;2023-05-07T00:22:50;5.50;;;3.63;;
27925;SDS011;15267;47.838;12.128;2023-05-07T00:25:16;7.03;;;3.85;;
27925;SDS011;15267;47.838;12.128;2023-05-07T00:27:44;6.10;;;3.70;;
27925;SDS011;15267;47.838;12.128;2023-05-07T00:30:10;6.50;;;3.40;;
27925;SDS011;15267;47.838;12.128;2023-05-07T00:32:36;5.10;;;3.70;;
27925;SDS011;15267;47.838;12.128;2023-05-07T00:35:03;7.22;;;3.78;;
27925;SDS011;15267;47.838;12.128;2023-05-07T00:37:29;4.65;;;3.67;;
27925;SDS011;15267;47.838;12.128;2023-05-07T00:39:55;6.47;;;4.07;;
27925;SDS011;15267;47.838;12.128;2023-05-07T00:42:21;6.63;;;4.35;;
27925;SDS011;15267;47.838;12.128;2023-05-07T00:44:47;6.38;;;5.28;;
27925;SDS011;15267;47.838;12.128;2023-05-07T00:47:12;5.95;;;5.32;;
27925;SDS011;15267;47.838;12.128;2023-05-07T00:49:40;13.38;;;4.10;;
27925;SDS011;15267;47.838;12.128;2023-05-07T00:52:07;5.68;;;3.60;;
27925;SDS011;15267;47.838;12.128;2023-05-07T00:54:33;11.02;;;4.63;;
27925;SDS011;15267;47.838;12.128;2023-05-07T00:56:59;7.32;;;6.05;;
27925;SDS011;15267;47.838;12.128;2023-05-07T00:59:25;7.57;;;4.00;;
27925;SDS011;15267;47.838;12.128;2023-05-07T01:01:51;6.50;;;3.90;;
27925;SDS011;15267;47.838;12.128;2023-05-07T01:04:17;6.43;;;3.97;;
27925;SDS011;15267;47.838;12.128;2023-05-07T01:06:44;5.88;;;4.00;;
27925;SDS011;15267;47.838;12.128;2023-05-07T01:09:10;4.30;;;3.70;;
27925;SDS011;15267;47.838;12.128;2023-05-07T01:11:37;5.78;;;3.70;;
27925;SDS011;15267;47.838;12.128;2023-05-07T01:14:03;5.97;;;3.78;;
27925;SDS011;15267;47.838;12.128;2023-05-07T01:16:30;5.70;;;3.55;;
27925;SDS011;15267;47.838;12.128;2023-05-07T01:18:56;4.97;;;3.63;;
27925;SDS011;15267;47.838;12.128;2023-05-07T01:21:25;5.18;;;3.63;;
27925;SDS011;15267;47.838;12.128;2023-05-07T01:23:55;7.13;;;4.72;;
27925;SDS011;15267;47.838;12.128;2023-05-07T01:26:22;7.55;;;4.85;;
27925;SDS011;15267;47.838;12.128;2023-05-07T01:28:48;9.23;;;4.20;;
27925;SDS011;15267;47.838;12.128;2023-05-07T01:31:15;4.38;;;3.58;;
27925;SDS011;15267;47.838;12.128;2023-05-07T01:33:42;6.20;;;4.97;;
27925;SDS011;15267;47.838;12.128;2023-05-07T01:36:10;7.75;;;3.83;;
27925;SDS011;15267;47.838;12.128;2023-05-07T01:38:37;4.97;;;3.90;;
27925;SDS011;15267;47.838;12.128;2023-05-07T01:41:03;4.75;;;3.67;;
27925;SDS011;15267;47.838;12.128;2023-05-07T01:43:30;5.25;;;3.65;;
27925;SDS011;15267;47.838;12.128;2023-05-07T01:45:56;8.55;;;3.80;;
27925;SDS011;15267;47.838;12.128;2023-05-07T01:48:23;7.97;;;3.28;;
27925;SDS011;15267;47.838;12.128;2023-05-07T01:50:49;5.30;;;3.10;;
27925;SDS011;15267;47.838;12.128;2023-05-07T01:53:16;4.97;;;3.28;;
27925;SDS011;15267;47.838;12.128;2023-05-07T01:55:42;7.03;;;4.30;;
27925;SDS011;15267;47.838;12.128;2023-05-07T01:58:08;6.07;;;4.60;;
27925;SDS011;15267;47.838;12.128;2023-05-07T02:00:34;6.18;;;3.38;;
27925;SDS011;15267;47.838;12.128;2023-05-07T02:03:00;9.52;;;3.53;;
27925;SDS011;15267;47.838;12.128;2023-05-07T02:05:26;4.88;;;3.17;;
27925;SDS011;15267;47.838;12.128;2023-05-07T02:07:52;10.75;;;3.65;;
27925;SDS011;15267;47.838;12.128;2023-05-07T02:10:18;5.20;;;3.40;;
27925;SDS011;15267;47.838;12.128;2023-05-07T02:12:44;6.22;;;3.60;;
27925;SDS011;15267;47.838;12.128;2023-05-07T02:15:10;7.10;;;3.30;;
27925;SDS011;15267;47.838;12.128;2023-05-07T02:17:39;6.10;;;3.47;;
27925;SDS011;15267;47.838;12.128;2023-05-07T02:20:05;5.03;;;3.65;;
27925;SDS011;15267;47.838;12.128;2023-05-07T02:22:38;5.75;;;3.25;;
27925;SDS011;15267;47.838;12.128;2023-05-07T02:25:04;5.85;;;3.33;;
27925;SDS011;15267;47.838;12.128;2023-05-07T02:27:30;4.10;;;3.20;;
27925;SDS011;15267;47.838;12.128;2023-05-07T02:29:55;6.15;;;3.47;;
27925;SDS011;15267;47.838;12.128;2023-05-07T02:32:21;4.15;;;2.88;;
27925;SDS011;15267;47.838;12.128;2023-05-07T02:34:50;3.78;;;3.20;;
27925;SDS011;15267;47.838;12.128;2023-05-07T02:37:17;7.00;;;3.20;;
27925;SDS011;15267;47.838;12.128;2023-05-07T02:39:43;3.28;;;2.83;;
27925;SDS011;15267;47.838;12.128;2023-05-07T02:42:09;4.18;;;3.25;;
27925;SDS011;15267;47.838;12.128;2023-05-07T02:44:35;6.18;;;3.25;;
27925;SDS011;15267;47.838;12.128;2023-05-07T02:47:00;7.70;;;2.90;;
27925;SDS011;15267;47.838;12.128;2023-05-07T02:49:26;5.53;;;3.35;;
27925;SDS011;15267;47.838;12.128;2023-05-07T02:51:52;4.15;;;2.90;;
27925;SDS011;15267;47.838;12.128;2023-05-07T02:54:18;4.13;;;3.00;;
27925;SDS011;15267;47.838;12.128;2023-05-07T02:56:44;4.47;;;3.00;;
27925;SDS011;15267;47.838;12.128;2023-05-07T02:59:10;4.38;;;2.83;;
27925;SDS011;15267;47.838;12.128;2023-05-07T03:01:36;3.20;;;2.90;;
27925;SDS011;15267;47.838;12.128;2023-05-07T03:04:02;5.68;;;3.15;;
27925;SDS011;15267;47.838;12.128;2023-05-07T03:06:28;5.10;;;2.90;;
27925;SDS011;15267;47.838;12.128;2023-05-07T03:08:54;3.42;;;2.80;;
27925;SDS011;15267;47.838;12.128;2023-05-07T03:11:20;5.80;;;3.00;;
27925;SDS011;15267;47.838;12.128;2023-05-07T03:13:46;5.07;;;2.90;;
27925;SDS011;15267;47.838;12.128;2023-05-07T03:16:13;4.90;;;2.85;;
27925;SDS011;15267;47.838;12.128;2023-05-07T03:18:40;4.32;;;2.97;;
27925;SDS011;15267;47.838;12.128;2023-05-07T03:21:06;3.88;;;3.08;;
27925;SDS011;15267;47.838;12.128;2023-05-07T03:23:31;4.47;;;2.88;;
27925;SDS011;15267;47.838;12.128;2023-05-07T03:25:57;5.47;;;3.25;;
27925;SDS011;15267;47.838;12.128;2023-05-07T03:28:23;5.47;;;3.38;;
27925;SDS011;15267;47.838;12.128;2023-05-07T03:30:49;6.20;;;2.80;;
27925;SDS011;15267;47.838;12.128;2023-05-07T03:33:15;3.70;;;3.10;;
27925;SDS011;15267;47.838;12.128;2023-05-07T03:35:41;3.60;;;2.92;;
27925;SDS011;15267;47.838;12.128;2023-05-07T03:38:07;8.18;;;2.90;;
27925;SDS011;15267;47.838;12.128;2023-05-07T03:40:33;4.72;;;3.00;;
27925;SDS011;15267;47.838;12.128;2023-05-07T03:43:00;6.32;;;2.97;;
27925;SDS011;15267;47.838;12.128;2023-05-07T03:45:26;8.32;;;3.10;;
27925;SDS011;15267;47.838;12.128;2023-05-07T03:47:51;4.95;;;2.80;;
27925;SDS011;15267;47.838;12.128;2023-05-07T03:50:17;3.65;;;2.70;;
27925;SDS011;15267;47.838;12.128;2023-05-07T03:52:43;3.35;;;3.03;;
27925;SDS011;15267;47.838;12.128;2023-05-07T03:55:10;3.38;;;3.08;;
27925;SDS011;15267;47.838;12.128;2023-05-07T03:57:36;5.70;;;2.90;;
27925;SDS011;15267;47.838;12.128;2023-05-07T04:00:02;3.75;;;3.30;;
27925;SDS011;15267;47.838;12.128;2023-05-07T04:02:29;4.53;;;3.00;;
27925;SDS011;15267;47.838;12.128;2023-05-07T04:04:55;5.28;;;3.03;;
27925;SDS011;15267;47.838;12.128;2023-05-07T04:07:21;4.70;;;3.28;;
27925;SDS011;15267;47.838;12.128;2023-05-07T04:09:47;5.72;;;2.97;;
27925;SDS011;15267;47.838;12.128;2023-05-07T04:12:13;6.97;;;3.00;;
27925;SDS011;15267;47.838;12.128;2023-05-07T04:14:39;3.42;;;3.13;;
27925;SDS011;15267;47.838;12.128;2023-05-07T04:17:05;5.72;;;3.00;;
27925;SDS011;15267;47.838;12.128;2023-05-07T04:19:32;4.95;;;2.88;;
27925;SDS011;15267;47.838;12.128;2023-05-07T04:21:58;8.35;;;4.95;;
27925;SDS011;15267;47.838;12.128;2023-05-07T04:24:24;3.72;;;3.17;;
27925;SDS011;15267;47.838;12.128;2023-05-07T04:26:50;5.57;;;3.00;;
27925;SDS011;15267;47.838;12.128;2023-05-07T04:29:17;4.82;;;2.83;;
27925;SDS011;15267;47.838;12.128;2023-05-07T04:31:43;8.48;;;3.10;;
27925;SDS011;15267;47.838;12.128;2023-05-07T04:34:10;3.83;;;3.42;;
27925;SDS011;15267;47.838;12.128;2023-05-07T04:36:37;4.68;;;2.83;;
27925;SDS011;15267;47.838;12.128;2023-05-07T04:39:03;4.57;;;2.88;;
27925;SDS011;15267;47.838;12.128;2023-05-07T04:41:29;3.75;;;2.65;;
27925;SDS011;15267;47.838;12.128;2023-05-07T04:43:56;4.10;;;2.58;;
27925;SDS011;15267;47.838;12.128;2023-05-07T04:46:23;5.68;;;2.70;;
27925;SDS011;15267;47.838;12.128;2023-05-07T04:48:50;4.03;;;2.63;;
27925;SDS011;15267;47.838;12.128;2023-05-07T04:51:16;3.10;;;2.63;;
27925;SDS011;15267;47.838;12.128;2023-05-07T04:53:42;5.30;;;2.70;;
27925;SDS011;15267;47.838;12.128;2023-05-07T04:56:08;4.60;;;2.70;;
27925;SDS011;15267;47.838;12.128;2023-05-07T04:58:34;4.22;;;2.65;;
27925;SDS011;15267;47.838;12.128;2023-05-07T05:01:00;5.47;;;3.35;;
27925;SDS011;15267;47.838;12.128;2023-05-07T05:03:27;6.22;;;3.53;;
27925;SDS011;15267;47.838;12.128;2023-05-07T05:05:53;4.28;;;3.05;;
27925;SDS011;15267;47.838;12.128;2023-05-07T05:08:19;3.95;;;2.88;;
27925;SDS011;15267;47.838;12.128;2023-05-07T05:10:45;4.28;;;2.85;;
27925;SDS011;15267;47.838;12.128;2023-05-07T05:13:13;5.70;;;2.60;;
27925;SDS011;15267;47.838;12.128;2023-05-07T05:15:39;5.20;;;2.97;;
27925;SDS011;15267;47.838;12.128;2023-05-07T05:18:05;4.88;;;2.90;;
27925;SDS011;15267;47.838;12.128;2023-05-07T05:20:31;4.13;;;2.70;;
27925;SDS011;15267;47.838;12.128;2023-05-07T05:22:57;4.07;;;2.78;;
27925;SDS011;15267;47.838;12.128;2023-05-07T05:25:23;4.88;;;2.75;;
27925;SDS011;15267;47.838;12.128;2023-05-07T05:27:49;6.70;;;3.90;;
27925;SDS011;15267;47.838;12.128;2023-05-07T05:30:15;8.40;;;3.13;;
27925;SDS011;15267;47.838;12.128;2023-05-07T05:32:41;4.25;;;3.50;;
27925;SDS011;15267;47.838;12.128;2023-05-07T05:35:07;6.30;;;2.85;;
27925;SDS011;15267;47.838;12.128;2023-05-07T05:37:33;6.55;;;2.80;;
27925;SDS011;15267;47.838;12.128;2023-05-07T05:39:59;6.05;;;2.97;;
27925;SDS011;15267;47.838;12.128;2023-05-07T05:42:25;4.05;;;3.25;;
27925;SDS011;15267;47.838;12.128;2023-05-07T05:44:51;4.88;;;3.65;;
27925;SDS011;15267;47.838;12.128;2023-05-07T05:47:17;4.88;;;3.28;;
27925;SDS011;15267;47.838;12.128;2023-05-07T05:49:43;5.03;;;4.45;;
27925;SDS011;15267;47.838;12.128;2023-05-07T05:52:09;3.67;;;3.17;;
27925;SDS011;15267;47.838;12.128;2023-05-07T05:54:35;4.45;;;3.75;;
27925;SDS011;15267;47.838;12.128;2023-05-07T05:57:01;7.78;;;5.20;;
27925;SDS011;15267;47.838;12.128;2023-05-07T05:59:29;6.85;;;5.20;;
27925;SDS011;15267;47.838;12.128;2023-05-07T06:01:55;8.27;;;5.95;;
27925;SDS011;15267;47.838;12.128;2023-05-07T06:04:21;7.78;;;6.20;;
27925;SDS011;15267;47.838;12.128;2023-05-07T06:06:47;8.23;;;5.88;;
27925;SDS011;15267;47.838;12.128;2023-05-07T06:09:13;7.18;;;5.38;;
27925;SDS011;15267;47.838;12.128;2023-05-07T06:11:39;7.70;;;3.63;;
27925;SDS011;15267;47.838;12.128;2023-05-07T06:14:06;5.80;;;5.20;;
27925;SDS011;15267;47.838;12.128;2023-05-07T06:16:31;4.93;;;4.32;;
27925;SDS011;15267;47.838;12.128;2023-05-07T06:18:57;7.05;;;3.70;;
27925;SDS011;15267;47.838;12.128;2023-05-07T06:21:23;8.13;;;5.30;;
27925;SDS011;15267;47.838;12.128;2023-05-07T06:23:49;7.00;;;3.40;;
27925;SDS011;15267;47.838;12.128;2023-05-07T06:26:17;6.53;;;4.40;;
27925;SDS011;15267;47.838;12.128;2023-05-07T06:28:43;3.67;;;3.38;;
27925;SDS011;15267;47.838;12.128;2023-05-07T06:33:38;5.15;;;3.85;;
27925;SDS011;15267;47.838;12.128;2023-05-07T06:36:04;4.75;;;3.25;;
27925;SDS011;15267;47.838;12.128;2023-05-07T06:38:30;4.43;;;3.50;;
27925;SDS011;15267;47.838;12.128;2023-05-07T06:40:56;5.53;;;3.13;;
27925;SDS011;15267;47.838;12.128;2023-05-07T06:43:22;4.10;;;3.35;;
27925;SDS011;15267;47.838;12.128;2023-05-07T06:45:48;5.40;;;3.70;;
27925;SDS011;15267;47.838;12.128;2023-05-07T06:48:14;7.63;;;3.65;;
27925;SDS011;15267;47.838;12.128;2023-05-07T06:50:40;5.60;;;3.70;;
27925;SDS011;15267;47.838;12.128;2023-05-07T06:53:05;4.20;;;3.40;;
27925;SDS011;15267;47.838;12.128;2023-05-07T06:55:31;3.85;;;3.40;;
27925;SDS011;15267;47.838;12.128;2023-05-07T06:57:57;6.18;;;3.88;;
27925;SDS011;15267;47.838;12.128;2023-05-07T07:00:26;8.10;;;3.90;;
27925;SDS011;15267;47.838;12.128;2023-05-07T07:02:52;7.45;;;3.85;;
27925;SDS011;15267;47.838;12.128;2023-05-07T07:05:17;7.05;;;3.50;;
27925;SDS011;15267;47.838;12.128;2023-05-07T07:07:43;7.10;;;4.55;;
27925;SDS011;15267;47.838;12.128;2023-05-07T07:10:09;7.78;;;4.20;;
27925;SDS011;15267;47.838;12.128;2023-05-07T07:12:35;5.65;;;3.92;;
27925;SDS011;15267;47.838;12.128;2023-05-07T07:15:01;5.65;;;3.60;;
27925;SDS011;15267;47.838;12.128;2023-05-07T07:17:27;7.25;;;3.80;;
27925;SDS011;15267;47.838;12.128;2023-05-07T07:19:53;4.68;;;4.20;;
27925;SDS011;15267;47.838;12.128;2023-05-07T07:22:19;6.45;;;3.70;;
27925;SDS011;15267;47.838;12.128;2023-05-07T07:24:45;5.05;;;4.15;;
27925;SDS011;15267;47.838;12.128;2023-05-07T07:27:11;4.55;;;3.17;;
27925;SDS011;15267;47.838;12.128;2023-05-07T07:29:37;5.72;;;3.50;;
27925;SDS011;15267;47.838;12.128;2023-05-07T07:32:03;5.35;;;3.75;;
27925;SDS011;15267;47.838;12.128;2023-05-07T07:34:29;7.47;;;3.60;;
27925;SDS011;15267;47.838;12.128;2023-05-07T07:36:55;5.38;;;4.00;;
27925;SDS011;15267;47.838;12.128;2023-05-07T07:39:21;4.07;;;3.65;;
27925;SDS011;15267;47.838;12.128;2023-05-07T07:41:47;7.70;;;5.00;;
27925;SDS011;15267;47.838;12.128;2023-05-07T07:44:13;7.90;;;4.70;;
27925;SDS011;15267;47.838;12.128;2023-05-07T07:46:39;7.82;;;3.97;;
27925;SDS011;15267;47.838;12.128;2023-05-07T07:49:05;4.13;;;3.70;;
27925;SDS011;15267;47.838;12.128;2023-05-07T07:51:30;6.05;;;4.10;;
27925;SDS011;15267;47.838;12.128;2023-05-07T07:53:56;7.00;;;4.30;;
27925;SDS011;15267;47.838;12.128;2023-05-07T07:56:23;6.65;;;3.75;;
27925;SDS011;15267;47.838;12.128;2023-05-07T07:58:49;5.20;;;4.22;;
27925;SDS011;15267;47.838;12.128;2023-05-07T08:01:15;7.90;;;3.88;;
27925;SDS011;15267;47.838;12.128;2023-05-07T08:03:42;6.47;;;4.07;;
27925;SDS011;15267;47.838;12.128;2023-05-07T08:06:07;4.80;;;3.50;;
27925;SDS011;15267;47.838;12.128;2023-05-07T08:08:33;5.45;;;3.40;;
27925;SDS011;15267;47.838;12.128;2023-05-07T08:10:59;6.65;;;3.38;;
27925;SDS011;15267;47.838;12.128;2023-05-07T08:13:25;4.65;;;3.42;;
27925;SDS011;15267;47.838;12.128;2023-05-07T08:15:51;6.00;;;3.92;;
27925;SDS011;15267;47.838;12.128;2023-05-07T08:18:17;6.22;;;3.97;;
27925;SDS011;15267;47.838;12.128;2023-05-07T08:20:43;6.07;;;4.13;;
27925;SDS011;15267;47.838;12.128;2023-05-07T08:23:09;4.22;;;3.45;;
27925;SDS011;15267;47.838;12.128;2023-05-07T08:25:35;6.90;;;3.60;;
27925;SDS011;15267;47.838;12.128;2023-05-07T08:28:02;6.53;;;3.63;;
27925;SDS011;15267;47.838;12.128;2023-05-07T08:30:28;5.75;;;3.67;;
27925;SDS011;15267;47.838;12.128;2023-05-07T08:32:54;4.88;;;3.60;;
27925;SDS011;15267;47.838;12.128;2023-05-07T08:35:20;4.80;;;3.58;;
27925;SDS011;15267;47.838;12.128;2023-05-07T08:37:46;6.38;;;3.35;;
27925;SDS011;15267;47.838;12.128;2023-05-07T08:40:12;4.68;;;3.45;;
27925;SDS011;15267;47.838;12.128;2023-05-07T08:42:38;5.05;;;3.42;;
27925;SDS011;15267;47.838;12.128;2023-05-07T08:45:08;3.40;;;3.10;;
27925;SDS011;15267;47.838;12.128;2023-05-07T08:47:39;3.92;;;3.00;;
27925;SDS011;15267;47.838;12.128;2023-05-07T08:50:06;3.42;;;2.90;;
27925;SDS011;15267;47.838;12.128;2023-05-07T08:52:32;4.88;;;3.15;;
27925;SDS011;15267;47.838;12.128;2023-05-07T08:54:58;6.68;;;2.85;;
27925;SDS011;15267;47.838;12.128;2023-05-07T08:57:24;3.30;;;2.65;;
27925;SDS011;15267;47.838;12.128;2023-05-07T08:59:50;4.80;;;2.58;;
27925;SDS011;15267;47.838;12.128;2023-05-07T09:02:16;4.43;;;2.75;;
27925;SDS011;15267;47.838;12.128;2023-05-07T09:04:43;3.35;;;2.35;;
27925;SDS011;15267;47.838;12.128;2023-05-07T09:07:09;4.97;;;2.67;;
27925;SDS011;15267;47.838;12.128;2023-05-07T09:09:35;2.92;;;2.20;;
27925;SDS011;15267;47.838;12.128;2023-05-07T09:12:01;4.10;;;2.38;;
27925;SDS011;15267;47.838;12.128;2023-05-07T09:14:28;2.58;;;1.50;;
27925;SDS011;15267;47.838;12.128;2023-05-07T09:16:55;2.50;;;1.60;;
27925;SDS011;15267;47.838;12.128;2023-05-07T09:19:25;3.05;;;1.48;;
27925;SDS011;15267;47.838;12.128;2023-05-07T09:21:58;4.10;;;1.70;;
27925;SDS011;15267;47.838;12.128;2023-05-07T09:26:50;3.22;;;1.85;;
27925;SDS011;15267;47.838;12.128;2023-05-07T09:29:16;3.83;;;1.50;;
27925;SDS011;15267;47.838;12.128;2023-05-07T09:31:43;2.60;;;1.58;;
27925;SDS011;15267;47.838;12.128;2023-05-07T09:34:08;3.60;;;1.52;;
27925;SDS011;15267;47.838;12.128;2023-05-07T09:36:34;5.32;;;1.40;;
27925;SDS011;15267;47.838;12.128;2023-05-07T09:39:01;2.88;;;1.40;;
27925;SDS011;15267;47.838;12.128;2023-05-07T09:41:27;2.85;;;1.58;;
27925;SDS011;15267;47.838;12.128;2023-05-07T09:43:56;1.55;;;1.20;;
27925;SDS011;15267;47.838;12.128;2023-05-07T09:46:28;3.45;;;1.58;;
27925;SDS011;15267;47.838;12.128;2023-05-07T09:48:56;2.83;;;1.60;;
27925;SDS011;15267;47.838;12.128;2023-05-07T09:51:30;1.77;;;1.40;;
27925;SDS011;15267;47.838;12.128;2023-05-07T09:53:59;3.20;;;1.60;;
27925;SDS011;15267;47.838;12.128;2023-05-07T09:56:27;3.05;;;1.35;;
27925;SDS011;15267;47.838;12.128;2023-05-07T09:58:54;3.83;;;1.77;;
27925;SDS011;15267;47.838;12.128;2023-05-07T10:01:21;2.58;;;1.60;;
27925;SDS011;15267;47.838;12.128;2023-05-07T10:03:48;4.00;;;1.70;;
27925;SDS011;15267;47.838;12.128;2023-05-07T10:06:15;3.50;;;1.80;;
27925;SDS011;15267;47.838;12.128;2023-05-07T10:08:42;4.00;;;1.70;;
27925;SDS011;15267;47.838;12.128;2023-05-07T10:11:08;4.13;;;1.58;;
27925;SDS011;15267;47.838;12.128;2023-05-07T10:13:35;3.45;;;1.48;;
27925;SDS011;15267;47.838;12.128;2023-05-07T10:16:04;4.72;;;1.65;;
27925;SDS011;15267;47.838;12.128;2023-05-07T10:18:31;2.35;;;1.55;;
27925;SDS011;15267;47.838;12.128;2023-05-07T10:21:07;5.43;;;1.48;;
27925;SDS011;15267;47.838;12.128;2023-05-07T10:23:33;3.97;;;1.30;;
27925;SDS011;15267;47.838;12.128;2023-05-07T10:26:01;3.40;;;1.40;;
27925;SDS011;15267;47.838;12.128;2023-05-07T10:28:28;6.32;;;1.80;;
27925;SDS011;15267;47.838;12.128;2023-05-07T10:33:44;2.30;;;1.23;;
27925;SDS011;15267;47.838;12.128;2023-05-07T10:36:11;2.65;;;1.40;;
27925;SDS011;15267;47.838;12.128;2023-05-07T10:38:37;3.58;;;1.42;;
27925;SDS011;15267;47.838;12.128;2023-05-07T10:41:05;2.03;;;1.27;;
27925;SDS011;15267;47.838;12.128;2023-05-07T10:43:41;2.88;;;1.40;;
27925;SDS011;15267;47.838;12.128;2023-05-07T10:46:17;1.90;;;1.25;;
27925;SDS011;15267;47.838;12.128;2023-05-07T10:51:33;1.98;;;1.30;;
27925;SDS011;15267;47.838;12.128;2023-05-07T11:01:57;4.20;;;1.50;;
27925;SDS011;15267;47.838;12.128;2023-05-07T11:04:23;1.60;;;1.50;;
27925;SDS011;15267;47.838;12.128;2023-05-07T11:15:11;4.10;;;1.60;;
27925;SDS011;15267;47.838;12.128;2023-05-07T11:17:53;2.10;;;1.23;;
27925;SDS011;15267;47.838;12.128;2023-05-07T11:20:20;2.90;;;1.45;;
27925;SDS011;15267;47.838;12.128;2023-05-07T11:22:46;1.67;;;1.00;;
27925;SDS011;15267;47.838;12.128;2023-05-07T11:25:19;3.03;;;1.30;;
27925;SDS011;15267;47.838;12.128;2023-05-07T11:27:45;3.22;;;1.50;;
27925;SDS011;15267;47.838;12.128;2023-05-07T11:30:16;2.58;;;1.30;;
27925;SDS011;15267;47.838;12.128;2023-05-07T11:32:43;2.17;;;1.27;;
27925;SDS011;15267;47.838;12.128;2023-05-07T11:35:12;2.80;;;1.40;;
27925;SDS011;15267;47.838;12.128;2023-05-07T11:37:38;3.47;;;1.42;;
27925;SDS011;15267;47.838;12.128;2023-05-07T11:40:05;3.30;;;1.40;;
27925;SDS011;15267;47.838;12.128;2023-05-07T11:42:32;1.90;;;1.13;;
27925;SDS011;15267;47.838;12.128;2023-05-07T11:44:58;1.40;;;0.95;;
27925;SDS011;15267;47.838;12.128;2023-05-07T11:47:25;1.30;;;1.20;;
27925;SDS011;15267;47.838;12.128;2023-05-07T11:49:52;2.33;;;1.23;;
27925;SDS011;15267;47.838;12.128;2023-05-07T11:52:18;2.45;;;1.30;;
27925;SDS011;15267;47.838;12.128;2023-05-07T11:54:58;2.28;;;1.38;;
27925;SDS011;15267;47.838;12.128;2023-05-07T11:57:25;4.07;;;1.60;;
27925;SDS011;15267;47.838;12.128;2023-05-07T12:02:20;4.30;;;1.13;;
27925;SDS011;15267;47.838;12.128;2023-05-07T12:04:46;2.33;;;1.30;;
27925;SDS011;15267;47.838;12.128;2023-05-07T12:07:12;5.20;;;1.30;;
27925;SDS011;15267;47.838;12.128;2023-05-07T12:09:39;4.07;;;1.30;;
27925;SDS011;15267;47.838;12.128;2023-05-07T12:12:05;2.55;;;1.40;;
27925;SDS011;15267;47.838;12.128;2023-05-07T12:14:31;2.25;;;1.20;;
27925;SDS011;15267;47.838;12.128;2023-05-07T12:16:57;2.55;;;1.30;;
27925;SDS011;15267;47.838;12.128;2023-05-07T12:19:23;2.08;;;1.02;;
27925;SDS011;15267;47.838;12.128;2023-05-07T12:21:49;1.98;;;1.23;;
27925;SDS011;15267;47.838;12.128;2023-05-07T12:24:16;2.63;;;1.35;;
27925;SDS011;15267;47.838;12.128;2023-05-07T12:26:42;3.75;;;1.30;;
27925;SDS011;15267;47.838;12.128;2023-05-07T12:29:08;3.25;;;1.50;;
27925;SDS011;15267;47.838;12.128;2023-05-07T12:31:34;3.72;;;1.33;;
27925;SDS011;15267;47.838;12.128;2023-05-07T12:34:00;2.97;;;1.40;;
27925;SDS011;15267;47.838;12.128;2023-05-07T12:36:35;1.77;;;1.20;;
27925;SDS011;15267;47.838;12.128;2023-05-07T12:39:03;2.72;;;1.20;;
27925;SDS011;15267;47.838;12.128;2023-05-07T12:41:30;4.72;;;1.58;;
27925;SDS011;15267;47.838;12.128;2023-05-07T12:43:56;5.57;;;1.30;;
27925;SDS011;15267;47.838;12.128;2023-05-07T12:46:22;5.18;;;1.63;;
27925;SDS011;15267;47.838;12.128;2023-05-07T12:48:48;2.20;;;1.27;;
27925;SDS011;15267;47.838;12.128;2023-05-07T12:51:15;2.10;;;1.30;;
27925;SDS011;15267;47.838;12.128;2023-05-07T12:53:41;5.72;;;1.30;;
27925;SDS011;15267;47.838;12.128;2023-05-07T12:56:08;2.00;;;1.30;;
27925;SDS011;15267;47.838;12.128;2023-05-07T12:58:34;1.65;;;1.52;;
27925;SDS011;15267;47.838;12.128;2023-05-07T13:01:05;2.83;;;1.55;;
27925;SDS011;15267;47.838;12.128;2023-05-07T13:03:31;3.22;;;1.38;;
27925;SDS011;15267;47.838;12.128;2023-05-07T13:05:59;3.20;;;1.73;;
27925;SDS011;15267;47.838;12.128;2023-05-07T13:08:26;2.35;;;1.40;;
27925;SDS011;15267;47.838;12.128;2023-05-07T13:10:52;2.83;;;1.52;;
27925;SDS011;15267;47.838;12.128;2023-05-07T13:13:18;3.05;;;1.40;;
27925;SDS011;15267;47.838;12.128;2023-05-07T13:15:45;2.22;;;1.42;;
27925;SDS011;15267;47.838;12.128;2023-05-07T13:18:11;4.00;;;1.50;;
27925;SDS011;15267;47.838;12.128;2023-05-07T13:20:37;1.58;;;1.48;;
27925;SDS011;15267;47.838;12.128;2023-05-07T13:23:03;2.17;;;1.50;;
27925;SDS011;15267;47.838;12.128;2023-05-07T13:25:29;1.58;;;1.48;;
27925;SDS011;15267;47.838;12.128;2023-05-07T13:27:56;1.85;;;1.40;;
27925;SDS011;15267;47.838;12.128;2023-05-07T13:30:22;2.40;;;1.50;;
27925;SDS011;15267;47.838;12.128;2023-05-07T13:32:48;3.47;;;1.60;;
27925;SDS011;15267;47.838;12.128;2023-05-07T13:35:15;4.85;;;1.80;;
27925;SDS011;15267;47.838;12.128;2023-05-07T13:37:41;3.20;;;1.60;;
27925;SDS011;15267;47.838;12.128;2023-05-07T13:40:07;1.85;;;1.60;;
27925;SDS011;15267;47.838;12.128;2023-05-07T13:42:33;2.85;;;1.67;;
27925;SDS011;15267;47.838;12.128;2023-05-07T13:44:59;2.80;;;1.60;;
27925;SDS011;15267;47.838;12.128;2023-05-07T13:47:27;3.63;;;1.70;;
27925;SDS011;15267;47.838;12.128;2023-05-07T13:49:53;3.38;;;1.70;;
27925;SDS011;15267;47.838;12.128;2023-05-07T13:52:19;3.10;;;1.65;;
27925;SDS011;15267;47.838;12.128;2023-05-07T13:54:45;2.15;;;1.80;;
27925;SDS011;15267;47.838;12.128;2023-05-07T13:57:11;4.55;;;2.15;;
27925;SDS011;15267;47.838;12.128;2023-05-07T13:59:37;4.30;;;2.10;;
27925;SDS011;15267;47.838;12.128;2023-05-07T14:02:03;4.65;;;1.80;;
27925;SDS011;15267;47.838;12.128;2023-05-07T14:04:30;3.42;;;1.70;;
27925;SDS011;15267;47.838;12.128;2023-05-07T14:06:56;2.60;;;1.70;;
27925;SDS011;15267;47.838;12.128;2023-05-07T14:09:21;4.65;;;2.05;;
27925;SDS011;15267;47.838;12.128;2023-05-07T14:11:47;5.30;;;2.10;;
27925;SDS011;15267;47.838;12.128;2023-05-07T14:14:16;3.53;;;1.85;;
27925;SDS011;15267;47.838;12.128;2023-05-07T14:16:42;2.67;;;1.75;;
27925;SDS011;15267;47.838;12.128;2023-05-07T14:19:08;3.78;;;2.10;;
27925;SDS011;15267;47.838;12.128;2023-05-07T14:21:34;3.75;;;1.90;;
27925;SDS011;15267;47.838;12.128;2023-05-07T14:24:00;4.95;;;1.92;;
27925;SDS011;15267;47.838;12.128;2023-05-07T14:26:26;2.85;;;1.77;;
27925;SDS011;15267;47.838;12.128;2023-05-07T14:28:52;3.08;;;1.98;;
27925;SDS011;15267;47.838;12.128;2023-05-07T14:31:19;4.20;;;2.03;;
27925;SDS011;15267;47.838;12.128;2023-05-07T14:33:45;4.35;;;2.20;;
27925;SDS011;15267;47.838;12.128;2023-05-07T14:36:12;5.20;;;2.10;;
27925;SDS011;15267;47.838;12.128;2023-05-07T14:38:37;2.65;;;1.77;;
27925;SDS011;15267;47.838;12.128;2023-05-07T14:41:03;4.30;;;2.10;;
27925;SDS011;15267;47.838;12.128;2023-05-07T14:43:30;3.17;;;1.85;;
27925;SDS011;15267;47.838;12.128;2023-05-07T14:45:55;1.88;;;1.60;;
27925;SDS011;15267;47.838;12.128;2023-05-07T14:48:21;4.07;;;1.85;;
27925;SDS011;15267;47.838;12.128;2023-05-07T14:50:47;2.22;;;1.50;;
27925;SDS011;15267;47.838;12.128;2023-05-07T14:53:13;3.47;;;1.80;;
27925;SDS011;15267;47.838;12.128;2023-05-07T14:55:39;4.70;;;1.70;;
27925;SDS011;15267;47.838;12.128;2023-05-07T14:58:05;2.67;;;1.80;;